Time;durP1;ratioP1;P1;durP2;ratioP2;P2;SDS_P1;SDS_P2;PMS_P1;PMS_P2;Temp;Humidity;BMP_temperature;BMP_pressure;BME280_temperature;BME280_humidity;BME280_pressure;Samples;Min_cycle;Max_cycle;Signal;HPM_P1;HPM_P2
2022/04/02 00:01:14;;;;;;;14.63;8.73;;;;;;;1.70;74.70;99744.38;4158505;28;20498;-68
2022/04/02 00:03:17;;;;;;;12.57;8.10;;;;;;;1.68;74.30;99740.00;4163269;28;20441;-69
2022/04/02 00:05:20;;;;;;;16.05;8.02;;;;;;;1.70;73.89;99746.94;4155191;28;20061;-68
2022/04/02 00:07:23;;;;;;;10.25;7.38;;;;;;;1.54;74.31;99742.03;4156384;28;20419;-69
2022/04/02 00:09:26;;;;;;;12.23;8.52;;;;;;;1.44;74.91;99752.75;4160268;28;20514;-68
2022/04/02 00:11:29;;;;;;;14.18;7.78;;;;;;;1.61;75.04;99755.94;4160018;28;20046;-68
2022/04/02 00:13:32;;;;;;;10.02;7.40;;;;;;;1.63;74.61;99752.63;4160478;28;20084;-68
2022/04/02 00:15:37;;;;;;;12.55;8.43;;;;;;;1.53;75.05;99748.88;4156974;28;20499;-68
2022/04/02 00:17:41;;;;;;;11.27;7.88;;;;;;;1.62;74.84;99750.91;4159203;28;20426;-68
2022/04/02 00:19:44;;;;;;;11.73;7.43;;;;;;;1.53;75.05;99747.97;4160577;28;20050;-69
2022/04/02 00:21:47;;;;;;;12.20;8.38;;;;;;;1.63;74.67;99751.78;4154638;28;20029;-69
2022/04/02 00:23:51;;;;;;;9.90;7.25;;;;;;;1.55;75.25;99746.34;4162491;28;20091;-68
2022/04/02 00:25:54;;;;;;;11.13;7.53;;;;;;;1.50;75.72;99750.41;4176053;28;20045;-69
2022/04/02 00:27:57;;;;;;;10.40;7.45;;;;;;;1.54;75.66;99754.84;4163564;28;20042;-69
2022/04/02 00:30:00;;;;;;;11.10;7.90;;;;;;;1.62;75.58;99748.34;4163874;28;20128;-71
2022/04/02 00:32:05;;;;;;;10.05;7.68;;;;;;;1.51;75.67;99752.16;4161823;28;20407;-69
2022/04/02 00:34:09;;;;;;;11.32;7.70;;;;;;;1.68;75.11;99756.25;4157828;28;20514;-69
2022/04/02 00:36:13;;;;;;;11.15;7.35;;;;;;;1.56;75.75;99753.22;4161445;28;22119;-68
2022/04/02 00:38:16;;;;;;;11.68;7.25;;;;;;;1.80;74.79;99752.44;4164025;28;20053;-68
2022/04/02 00:40:19;;;;;;;10.48;7.68;;;;;;;1.73;74.64;99743.63;4164557;28;20116;-69
2022/04/02 00:42:23;;;;;;;12.20;7.55;;;;;;;1.60;75.06;99749.94;4160831;28;20454;-69
2022/04/02 00:44:26;;;;;;;10.27;8.07;;;;;;;1.50;76.04;99756.41;4155005;28;20096;-69
2022/04/02 00:46:29;;;;;;;10.75;7.57;;;;;;;1.66;75.29;99755.31;4160883;28;20037;-69
2022/04/02 00:48:34;;;;;;;9.63;7.22;;;;;;;1.71;75.26;99752.94;4156684;28;20049;-69
2022/04/02 00:50:37;;;;;;;;;;;;;;;1.80;74.46;99742.19;4159923;28;20414;-69
2022/04/02 00:52:40;;;;;;;10.40;7.00;;;;;;;1.69;74.44;99745.16;4163742;28;19921;-69
2022/04/02 00:54:45;;;;;;;10.13;7.07;;;;;;;1.60;75.18;99747.41;4158877;28;20136;-68
2022/04/02 00:56:48;;;;;;;11.45;7.78;;;;;;;1.63;75.46;99747.50;4162803;28;20091;-68
2022/04/02 00:58:52;;;;;;;14.65;8.38;;;;;;;1.77;74.79;99742.94;4159578;28;20030;-67
2022/04/02 01:00:55;;;;;;;13.77;8.63;;;;;;;1.71;74.97;99760.63;4156789;28;20038;-67
2022/04/02 01:02:59;;;;;;;9.73;7.70;;;;;;;1.62;75.00;99735.53;4153334;28;20454;-69
2022/04/02 01:05:05;;;;;;;13.52;8.18;;;;;;;1.61;75.32;99738.91;4160258;28;20396;-68
2022/04/02 01:07:09;;;;;;;10.93;7.80;;;;;;;1.67;74.90;99739.13;4163423;28;20274;-68
2022/04/02 01:09:15;;;;;;;10.55;8.32;;;;;;;1.64;74.85;99740.72;4147044;28;20073;-68
2022/04/02 01:11:22;;;;;;;9.68;8.20;;;;;;;1.61;74.76;99731.22;4144697;28;20069;-69
2022/04/02 01:13:29;;;;;;;13.60;7.82;;;;;;;1.61;74.96;99745.69;4140790;28;20133;-68
2022/04/02 01:15:34;;;;;;;10.90;7.80;;;;;;;1.47;75.34;99748.59;4164216;28;20061;-68
2022/04/02 01:17:40;;;;;;;7.97;6.28;;;;;;;1.63;74.45;99733.84;4161569;28;20060;-68
2022/04/02 01:19:53;;;;;;;9.75;7.68;;;;;;;1.64;74.51;99733.88;4154797;28;20052;-69
2022/04/02 01:22:04;;;;;;;9.40;7.25;;;;;;;1.58;74.60;99741.34;4142577;28;20034;-67
2022/04/02 01:24:17;;;;;;;9.07;6.80;;;;;;;1.60;74.61;99746.53;4160908;28;20044;-68
2022/04/02 01:26:22;;;;;;;;;;;;;;;1.53;74.77;99750.53;4163351;28;20033;-70
2022/04/02 01:28:33;;;;;;;9.27;6.90;;;;;;;1.61;74.45;99743.13;4134569;28;19926;-68
2022/04/02 01:30:40;;;;;;;8.40;6.85;;;;;;;1.57;74.17;99749.84;4158507;28;20045;-68
2022/04/02 01:32:43;;;;;;;8.85;6.60;;;;;;;1.60;74.13;99747.41;4161073;28;20042;-69
2022/04/02 01:34:48;;;;;;;8.40;6.95;;;;;;;1.62;74.33;99748.34;4161956;28;20132;-68
2022/04/02 01:36:54;;;;;;;11.95;7.68;;;;;;;1.57;74.40;99760.09;4159475;28;20041;-68
2022/04/02 01:39:03;;;;;;;12.38;7.72;;;;;;;1.62;74.18;99776.53;4154326;28;20124;-68
2022/04/02 01:41:06;;;;;;;11.70;6.82;;;;;;;1.56;74.21;99761.78;4160708;28;20152;-68
2022/04/02 01:43:15;;;;;;;9.38;6.63;;;;;;;1.56;74.25;99763.44;4164280;28;20060;-68
2022/04/02 01:45:25;;;;;;;10.90;6.57;;;;;;;1.54;74.30;99759.97;4147158;28;20140;-68
2022/04/02 01:47:38;;;;;;;9.93;7.22;;;;;;;1.53;74.48;99773.59;4162809;28;20051;-70
2022/04/02 01:49:41;;;;;;;9.82;6.78;;;;;;;1.61;74.11;99774.78;4141372;28;20053;-68
2022/04/02 01:51:45;;;;;;;9.65;7.15;;;;;;;1.61;73.70;99766.19;4158567;28;20037;-68
2022/04/02 01:53:52;;;;;;;11.57;7.22;;;;;;;1.51;74.19;99770.09;4164950;28;20146;-68
2022/04/02 01:55:58;;;;;;;9.90;7.45;;;;;;;1.39;75.10;99776.47;4163304;28;20045;-68
2022/04/02 01:58:14;;;;;;;12.80;7.07;;;;;;;1.41;75.47;99778.22;4146441;28;20058;-67
2022/04/02 02:00:21;;;;;;;11.45;7.22;;;;;;;1.57;74.84;99776.31;4152296;28;20030;-68
2022/04/02 02:02:26;;;;;;;8.35;6.38;;;;;;;1.69;73.71;99787.88;4169449;28;20501;-68
2022/04/02 02:04:30;;;;;;;8.10;6.60;;;;;;;1.59;74.70;99778.94;4162325;28;20056;-68
2022/04/02 02:06:38;;;;;;;9.07;6.80;;;;;;;1.61;74.47;99777.34;4154200;28;20490;-68
2022/04/02 02:08:45;;;;;;;9.07;6.82;;;;;;;1.65;74.11;99792.00;4156866;28;20045;-67
2022/04/02 02:11:12;;;;;;;8.55;6.38;;;;;;;1.55;74.34;99787.34;4161225;28;20065;-67
2022/04/02 02:13:47;;;;;;;11.30;6.22;;;;;;;1.61;74.16;99787.56;4170644;28;20069;-68
2022/04/02 02:15:54;;;;;;;13.48;7.60;;;;;;;1.56;74.09;99786.50;4139274;28;20042;-68
2022/04/02 02:17:57;;;;;;;11.65;6.47;;;;;;;1.64;73.96;99787.69;4153719;28;20116;-67
2022/04/02 02:20:00;;;;;;;7.78;5.90;;;;;;;1.57;73.99;99788.25;4155121;28;20407;-67
2022/04/02 02:22:03;;;;;;;8.85;6.80;;;;;;;1.56;74.02;99784.84;4157988;28;20048;-68
2022/04/02 02:24:06;;;;;;;10.75;6.38;;;;;;;1.43;75.02;99797.09;4163378;28;20495;-68
2022/04/02 02:26:09;;;;;;;9.57;7.13;;;;;;;1.56;74.61;99795.09;4159669;28;20402;-68
2022/04/02 02:28:14;;;;;;;13.00;6.40;;;;;;;1.64;74.36;99784.28;4153245;28;20465;-67
2022/04/02 02:30:17;;;;;;;10.25;6.10;;;;;;;1.57;74.25;99799.38;4140151;28;20569;-68
2022/04/02 02:32:20;;;;;;;11.65;5.93;;;;;;;1.67;74.09;99792.06;4161329;28;20045;-68
2022/04/02 02:36:45;;;;;;;10.57;6.57;;;;;;;1.52;74.22;99800.91;4132971;28;20531;-68
2022/04/02 02:38:48;;;;;;;12.80;6.47;;;;;;;1.53;74.52;99810.34;4156783;28;20034;-68
2022/04/02 02:41:01;;;;;;;9.70;5.55;;;;;;;1.51;74.20;99796.56;4161916;28;20079;-68
2022/04/02 02:43:10;;;;;;;10.77;5.88;;;;;;;1.57;74.06;99786.56;4155326;28;20034;-67
2022/04/02 02:45:18;;;;;;;12.60;6.43;;;;;;;1.34;74.85;99793.38;4161429;28;20029;-68
2022/04/02 02:47:21;;;;;;;;;;;;;;;1.48;75.00;99800.72;4161222;28;20172;-68
2022/04/02 02:49:26;;;;;;;11.02;5.82;;;;;;;1.52;73.91;99807.69;4156912;28;19932;-69
2022/04/02 02:51:33;;;;;;;9.75;6.43;;;;;;;1.37;75.11;99808.84;4160297;28;20534;-70
2022/04/02 02:53:36;;;;;;;11.20;5.32;;;;;;;1.43;75.05;99809.88;4164101;28;20052;-68
2022/04/02 02:55:39;;;;;;;8.75;5.70;;;;;;;1.39;74.82;99806.34;4158569;28;20056;-69
2022/04/02 02:57:45;;;;;;;11.27;6.40;;;;;;;1.51;74.91;99811.09;4139304;28;20069;-69
2022/04/02 02:59:48;;;;;;;11.52;7.05;;;;;;;1.45;74.78;99805.72;4161951;28;21501;-69
2022/04/02 03:01:55;;;;;;;9.98;6.75;;;;;;;1.35;74.96;99809.59;4145602;28;20531;-69
2022/04/02 03:03:59;;;;;;;8.93;6.43;;;;;;;1.55;74.51;99818.09;4160547;28;20100;-69
2022/04/02 03:06:06;;;;;;;10.80;6.53;;;;;;;1.41;74.47;99819.22;4159126;28;20042;-69
2022/04/02 03:08:16;;;;;;;9.27;5.65;;;;;;;1.61;74.07;99818.31;4169638;28;20038;-68
2022/04/02 03:10:33;;;;;;;8.73;6.30;;;;;;;1.52;73.94;99823.06;4161927;28;20038;-69
2022/04/02 03:12:36;;;;;;;10.10;6.05;;;;;;;1.39;74.97;99824.28;4153740;28;20046;-69
2022/04/02 03:14:39;;;;;;;8.65;5.75;;;;;;;1.36;74.61;99822.44;4162479;28;20041;-69
2022/04/02 03:16:44;;;;;;;7.55;6.07;;;;;;;1.53;74.72;99829.94;4135135;28;20053;-69
2022/04/02 03:18:53;;;;;;;11.25;7.03;;;;;;;1.60;73.98;99828.50;4163842;28;20045;-68
2022/04/02 03:20:57;;;;;;;10.60;6.45;;;;;;;1.49;74.14;99830.63;4160580;28;20073;-69
2022/04/02 03:23:04;;;;;;;10.15;7.22;;;;;;;1.46;74.49;99835.63;4159011;28;20040;-69
2022/04/02 03:25:09;;;;;;;11.07;7.30;;;;;;;1.53;74.22;99835.06;4156310;28;20068;-69
2022/04/02 03:27:12;;;;;;;11.95;7.43;;;;;;;1.42;74.42;99826.06;4160297;28;20038;-69
2022/04/02 03:29:21;;;;;;;10.07;7.13;;;;;;;1.37;75.00;99833.56;4161656;28;20037;-69
2022/04/02 03:31:24;;;;;;;11.77;6.15;;;;;;;1.48;74.57;99836.59;4149207;28;20030;-68
2022/04/02 03:33:29;;;;;;;10.07;6.60;;;;;;;1.45;74.57;99831.34;4155553;28;20046;-69
2022/04/02 03:35:38;;;;;;;10.70;7.15;;;;;;;1.27;75.32;99834.88;4154318;28;20038;-69
2022/04/02 03:37:41;;;;;;;11.43;7.47;;;;;;;1.25;75.89;99833.06;4149310;28;20466;-69
2022/04/02 03:39:45;;;;;;;9.02;6.05;;;;;;;1.44;75.12;99844.94;4161430;28;20410;-69
2022/04/02 03:41:49;;;;;;;10.38;6.72;;;;;;;1.29;75.07;99830.69;4160190;28;20109;-69
2022/04/02 03:43:53;;;;;;;10.70;6.72;;;;;;;1.34;75.31;99838.56;4145344;28;20092;-68
2022/04/02 03:48:19;;;;;;;10.50;6.63;;;;;;;1.30;74.82;99847.81;4158972;28;20037;-68
2022/04/02 03:50:24;;;;;;;8.05;6.32;;;;;;;1.28;75.24;99844.31;4144797;28;20439;-68
2022/04/02 03:52:31;;;;;;;8.38;6.40;;;;;;;1.27;75.82;99846.78;4162182;28;20495;-68
2022/04/02 03:54:42;;;;;;;11.70;7.32;;;;;;;1.34;75.20;99842.03;4140838;28;20137;-68
2022/04/02 03:56:46;;;;;;;;;;;;;;;1.17;75.63;99840.44;4154840;28;20172;-69
2022/04/02 03:58:52;;;;;;;9.20;6.40;;;;;;;1.05;76.30;99845.88;4160980;28;20211;-69
2022/04/02 04:00:55;;;;;;;8.32;6.03;;;;;;;1.11;76.75;99845.28;4142756;28;20042;-68
2022/04/02 04:02:59;;;;;;;9.45;6.63;;;;;;;1.14;76.56;99850.53;4161242;28;20510;-68
2022/04/02 04:05:18;;;;;;;14.18;7.18;;;;;;;1.34;76.04;99851.38;4160474;28;20045;-68
2022/04/02 04:07:23;;;;;;;;;;;;;;;1.29;75.57;99866.53;4164384;28;20037;-68
2022/04/02 04:09:28;;;;;;;11.10;7.15;;;;;;;1.27;75.50;99852.81;4160358;28;19929;-68
2022/04/02 04:11:32;;;;;;;8.48;6.88;;;;;;;1.24;75.70;99856.91;4157955;28;20072;-68
2022/04/02 04:13:35;;;;;;;13.10;7.82;;;;;;;1.20;76.09;99866.16;4162834;28;20045;-68
2022/04/02 04:15:40;;;;;;;8.98;6.75;;;;;;;1.20;75.85;99861.03;4141332;28;20045;-69
2022/04/02 04:17:44;;;;;;;9.65;6.30;;;;;;;1.27;75.29;99865.63;4146028;28;20034;-69
2022/04/02 04:19:49;;;;;;;9.27;6.32;;;;;;;1.31;75.12;99870.03;4165374;28;20037;-69
2022/04/02 04:21:54;;;;;;;9.85;7.00;;;;;;;1.22;75.29;99869.66;4160221;28;20083;-69
2022/04/02 04:23:59;;;;;;;11.15;6.95;;;;;;;1.19;76.13;99875.50;4159816;28;20408;-69
2022/04/02 04:26:05;;;;;;;12.23;6.97;;;;;;;1.20;75.79;99871.28;4157578;28;20135;-68
2022/04/02 04:28:13;;;;;;;11.68;7.00;;;;;;;1.18;75.82;99875.44;4147587;28;20132;-69
2022/04/02 04:30:19;;;;;;;14.13;7.78;;;;;;;1.27;75.46;99880.97;4149151;28;20097;-69
2022/04/02 04:32:23;;;;;;;11.30;6.70;;;;;;;1.18;75.24;99872.88;4163059;28;20033;-69
2022/04/02 04:34:26;;;;;;;9.43;5.63;;;;;;;1.21;74.92;99885.81;4163213;28;20034;-69
2022/04/02 04:36:29;;;;;;;9.20;6.05;;;;;;;1.19;75.05;99884.88;4158860;28;20125;-68
2022/04/02 04:38:33;;;;;;;9.43;6.45;;;;;;;1.27;74.79;99888.66;4160842;28;20443;-69
2022/04/02 04:40:40;;;;;;;9.38;5.90;;;;;;;1.19;75.48;99888.31;4162526;28;20130;-69
2022/04/02 04:42:45;;;;;;;8.50;5.70;;;;;;;1.18;75.11;99880.56;4160356;28;20092;-69
2022/04/02 04:44:51;;;;;;;11.85;5.97;;;;;;;1.09;75.58;99885.31;4136895;28;20033;-69
2022/04/02 04:46:55;;;;;;;12.63;6.47;;;;;;;1.10;74.73;99884.50;4164928;28;20398;-69
2022/04/02 04:48:59;;;;;;;10.00;6.28;;;;;;;1.13;74.75;99879.50;4151872;28;20089;-68
2022/04/02 04:51:04;;;;;;;14.60;6.63;;;;;;;1.10;75.36;99884.50;4148553;28;20050;-69
2022/04/02 04:53:09;;;;;;;9.80;6.03;;;;;;;0.93;76.14;99897.44;4164970;28;20116;-69
2022/04/02 04:55:13;;;;;;;8.27;5.60;;;;;;;1.07;74.75;99897.16;4161578;28;20090;-69
2022/04/02 04:57:17;;;;;;;10.23;6.32;;;;;;;1.08;74.92;99894.69;4164696;28;20522;-69
2022/04/02 04:59:34;;;;;;;11.38;6.00;;;;;;;1.04;74.97;99909.03;4148297;28;20049;-68
2022/04/02 05:01:37;;;;;;;10.95;5.97;;;;;;;1.10;75.12;99900.72;4165869;28;20403;-68
2022/04/02 05:03:40;;;;;;;9.88;6.07;;;;;;;1.14;74.47;99907.75;4147426;28;20038;-69
2022/04/02 05:05:48;;;;;;;10.98;6.05;;;;;;;0.96;75.27;99902.69;4145416;28;20050;-69
2022/04/02 05:07:55;;;;;;;12.10;6.25;;;;;;;1.03;74.66;99908.94;4164478;28;20112;-69
2022/04/02 05:09:59;;;;;;;8.90;5.45;;;;;;;1.03;75.16;99917.50;4164500;28;20045;-68
2022/04/02 05:12:06;;;;;;;11.82;6.95;;;;;;;1.03;74.45;99917.50;4164711;28;20136;-69
2022/04/02 05:14:13;;;;;;;9.40;5.68;;;;;;;1.06;74.61;99916.75;4160606;28;20574;-68
2022/04/02 05:16:23;;;;;;;9.52;6.72;;;;;;;1.10;74.35;99925.47;4161705;28;20048;-68
2022/04/02 05:18:28;;;;;;;8.65;5.38;;;;;;;1.01;74.29;99926.81;4161449;28;20403;-68
2022/04/02 05:20:31;;;;;;;12.93;6.03;;;;;;;1.12;74.75;99923.84;4162294;28;20042;-69
2022/04/02 05:22:35;;;;;;;10.40;5.70;;;;;;;1.16;73.95;99930.84;4156115;28;20073;-68
2022/04/02 05:24:38;;;;;;;11.32;5.70;;;;;;;1.09;74.70;99934.81;4161997;28;20048;-69
2022/04/02 05:26:41;;;;;;;11.15;5.72;;;;;;;1.21;73.98;99934.47;4162939;28;20111;-69
2022/04/02 05:28:48;;;;;;;8.93;5.82;;;;;;;1.08;74.17;99942.44;4143296;28;20041;-69
2022/04/02 05:30:51;;;;;;;13.85;6.45;;;;;;;1.15;74.18;99949.56;4162202;28;20042;-69
2022/04/02 05:32:56;;;;;;;8.90;6.18;;;;;;;1.09;74.29;99942.50;4158660;28;20088;-69
2022/04/02 05:34:59;;;;;;;9.57;5.90;;;;;;;1.09;74.17;99942.50;4161627;28;20038;-69
2022/04/02 05:37:02;;;;;;;9.65;6.18;;;;;;;1.09;73.86;99949.31;4145369;28;20042;-68
2022/04/02 05:39:05;;;;;;;9.13;5.75;;;;;;;1.14;73.58;99953.81;4155240;28;20076;-69
2022/04/02 05:41:08;;;;;;;8.75;6.10;;;;;;;1.06;73.24;99954.28;4160797;28;20076;-68
2022/04/02 05:43:11;;;;;;;8.65;5.78;;;;;;;1.03;74.03;99950.78;4160633;28;20037;-68
2022/04/02 05:45:15;;;;;;;8.95;5.85;;;;;;;0.97;74.03;99959.88;4158239;28;20037;-68
2022/04/02 05:47:18;;;;;;;14.32;6.40;;;;;;;1.10;73.96;99967.28;4162428;28;20414;-68
2022/04/02 05:49:23;;;;;;;10.60;5.70;;;;;;;1.08;73.91;99966.34;4164857;28;20033;-68
2022/04/02 05:51:26;;;;;;;10.50;5.63;;;;;;;1.10;73.87;99981.78;4154993;28;20038;-68
2022/04/02 05:53:29;;;;;;;11.98;5.60;;;;;;;1.08;73.32;99971.47;4165064;28;20065;-68
2022/04/02 05:55:32;;;;;;;8.95;6.00;;;;;;;1.08;73.46;99980.81;4161211;28;20041;-68
2022/04/02 05:57:36;;;;;;;13.55;6.00;;;;;;;1.01;74.37;99972.88;4155251;28;20041;-69
2022/04/02 05:59:40;;;;;;;9.40;5.88;;;;;;;1.00;73.60;99980.50;4159617;28;20138;-69
2022/04/02 06:01:43;;;;;;;10.20;5.95;;;;;;;0.96;73.51;99989.69;4153894;28;20461;-68
2022/04/02 06:03:47;;;;;;;10.50;5.68;;;;;;;1.00;73.53;99991.59;4162502;28;20029;-68
2022/04/02 06:05:51;;;;;;;11.00;5.93;;;;;;;1.00;74.05;100000.97;4158334;28;20044;-68
2022/04/02 06:07:54;;;;;;;9.23;6.30;;;;;;;1.01;73.65;99993.34;4154378;28;20124;-69
2022/04/02 06:10:01;;;;;;;10.88;7.00;;;;;;;1.04;74.43;100001.16;4162202;28;20080;-69
2022/04/02 06:12:05;;;;;;;11.10;6.33;;;;;;;1.01;74.06;100003.59;4158561;28;20039;-69
2022/04/02 06:14:10;;;;;;;11.20;5.47;;;;;;;1.03;74.13;100009.63;4164651;28;20044;-69
2022/04/02 06:16:19;;;;;;;9.48;5.78;;;;;;;1.08;74.14;100006.41;4162921;28;20107;-68
2022/04/02 06:18:21;;;;;;;14.65;6.40;;;;;;;1.08;73.83;100014.09;4158238;28;20034;-68
2022/04/02 06:20:24;;;;;;;10.68;6.00;;;;;;;1.08;73.29;100009.88;4153792;28;20140;-69
2022/04/02 06:22:29;;;;;;;11.75;6.15;;;;;;;1.15;72.95;100017.00;4155123;28;20053;-69
2022/04/02 06:24:31;;;;;;;11.63;6.55;;;;;;;1.08;73.37;100006.41;4160677;28;20052;-69
2022/04/02 06:26:34;;;;;;;11.43;6.63;;;;;;;1.01;74.34;100021.50;4158960;28;20077;-68
2022/04/02 06:28:39;;;;;;;13.85;6.32;;;;;;;1.10;73.37;100025.31;4158580;28;20061;-67
2022/04/02 06:30:42;;;;;;;13.43;7.82;;;;;;;1.04;74.10;100024.19;4156772;28;20507;-68
2022/04/02 06:32:45;;;;;;;9.80;6.75;;;;;;;1.15;72.80;100039.16;4155060;28;20064;-68
2022/04/02 06:34:49;;;;;;;15.33;5.93;;;;;;;0.95;73.25;100031.47;4162580;28;20045;-68
2022/04/02 06:36:54;;;;;;;13.35;7.55;;;;;;;1.02;73.37;100033.50;4160544;28;20338;-69
2022/04/02 06:38:58;;;;;;;10.82;5.82;;;;;;;1.02;73.17;100046.31;4164136;28;20091;-68
2022/04/02 06:41:01;;;;;;;8.75;5.78;;;;;;;1.14;73.38;100042.53;4162131;28;20403;-68
2022/04/02 06:43:07;;;;;;;11.18;5.95;;;;;;;1.08;73.60;100044.81;4162116;28;20033;-68
2022/04/02 06:45:36;;;;;;;14.85;6.65;;;;;;;1.12;72.80;100041.59;4154588;28;20406;-68
2022/04/02 06:47:42;;;;;;;9.48;6.68;;;;;;;1.08;72.49;100052.50;4157125;28;20059;-68
2022/04/02 06:49:45;;;;;;;11.35;6.25;;;;;;;1.14;72.48;100050.22;4168236;28;20055;-69
2022/04/02 06:51:48;;;;;;;8.98;6.47;;;;;;;1.00;73.59;100050.47;4175871;28;20464;-69
2022/04/02 06:53:51;;;;;;;9.57;7.05;;;;;;;1.02;73.39;100061.66;4178595;28;20051;-68
2022/04/02 06:55:55;;;;;;;8.13;5.90;;;;;;;1.15;72.47;100068.19;4175949;28;20053;-68
2022/04/02 06:57:59;;;;;;;8.45;6.13;;;;;;;1.13;72.23;100058.72;4178532;28;20207;-69
2022/04/02 07:00:02;;;;;;;11.07;5.68;;;;;;;1.01;72.35;100062.47;4177262;28;20055;-69
2022/04/02 07:02:05;;;;;;;11.60;5.85;;;;;;;1.10;72.59;100061.13;4178942;28;20043;-69
2022/04/02 07:04:08;;;;;;;11.52;5.82;;;;;;;1.10;72.83;100067.13;4179341;28;20029;-69
2022/04/02 07:06:12;;;;;;;12.18;6.20;;;;;;;1.11;72.48;100076.56;4175272;28;20040;-69
2022/04/02 07:08:15;;;;;;;10.68;5.68;;;;;;;1.09;72.67;100083.28;4177978;28;20041;-69
2022/04/02 07:10:18;;;;;;;9.90;6.05;;;;;;;1.04;72.80;100080.50;4162553;28;20039;-69
2022/04/02 07:12:22;;;;;;;9.40;5.32;;;;;;;1.10;72.54;100084.19;4179173;28;20343;-70
2022/04/02 07:14:25;;;;;;;10.98;5.95;;;;;;;1.13;72.36;100086.88;4179989;28;20116;-69
2022/04/02 07:16:28;;;;;;;8.93;5.82;;;;;;;0.99;72.96;100082.00;4179918;28;20098;-70
2022/04/02 07:18:34;;;;;;;10.93;5.47;;;;;;;1.20;71.80;100092.34;4173323;28;20042;-70
2022/04/02 07:20:39;;;;;;;7.43;5.28;;;;;;;1.14;71.98;100092.06;4180922;28;20043;-70
2022/04/02 07:22:44;;;;;;;8.48;5.47;;;;;;;0.97;72.86;100093.84;4180151;28;20155;-70
2022/04/02 07:24:49;;;;;;;9.32;5.88;;;;;;;1.16;72.62;100089.56;4171477;28;20043;-70
2022/04/02 07:26:54;;;;;;;9.57;6.05;;;;;;;1.22;72.38;100100.09;4154172;28;20077;-70
2022/04/02 07:28:59;;;;;;;8.43;5.43;;;;;;;1.15;72.10;100103.16;4184588;28;20041;-70
2022/04/02 07:31:02;;;;;;;10.07;5.68;;;;;;;1.13;72.76;100104.81;4177803;28;20033;-70
2022/04/02 07:33:05;;;;;;;8.65;5.93;;;;;;;1.14;71.90;100102.31;4185690;28;20025;-70
2022/04/02 07:35:10;;;;;;;14.63;6.57;;;;;;;1.20;72.37;100101.72;4183416;28;20094;-69
2022/04/02 07:37:29;;;;;;;13.45;6.10;;;;;;;1.14;72.79;100103.97;4181884;28;20493;-69
2022/04/02 07:39:40;;;;;;;10.25;6.75;;;;;;;1.14;73.04;100114.22;4190862;28;20128;-70
2022/04/02 07:41:46;;;;;;;8.88;5.82;;;;;;;1.14;72.48;100116.78;4182304;28;20051;-67
2022/04/02 07:43:52;;;;;;;13.55;6.20;;;;;;;1.19;73.28;100125.56;4164378;28;20065;-69
2022/04/02 07:46:04;;;;;;;12.52;5.80;;;;;;;1.23;72.72;100122.34;4179408;28;20047;-68
2022/04/02 07:48:08;;;;;;;7.47;5.03;;;;;;;1.21;72.11;100134.16;4170228;28;20050;-68
2022/04/02 07:50:14;;;;;;;8.68;5.78;;;;;;;1.22;73.04;100133.38;4162482;28;20054;-68
2022/04/02 07:52:17;;;;;;;10.50;5.60;;;;;;;1.34;71.86;100141.66;4172784;28;20044;-65
2022/04/02 07:54:24;;;;;;;8.50;5.03;;;;;;;1.36;71.85;100139.16;4173459;28;20037;-65
2022/04/02 07:56:30;;;;;;;9.75;5.20;;;;;;;1.38;71.63;100145.22;4171192;28;20060;-71
2022/04/02 07:58:34;;;;;;;9.93;5.50;;;;;;;1.27;71.83;100139.59;4174024;28;20060;-70
2022/04/02 08:00:40;;;;;;;9.32;5.25;;;;;;;1.31;71.63;100156.84;4157477;28;20061;-70
2022/04/02 08:02:46;;;;;;;13.07;5.60;;;;;;;1.40;70.93;100151.25;4168682;28;20128;-71
2022/04/02 08:04:59;;;;;;;7.95;5.05;;;;;;;1.35;71.56;100151.06;4189214;28;20123;-70
2022/04/02 08:07:02;;;;;;;11.63;5.72;;;;;;;1.39;71.73;100157.22;4171081;28;20124;-70
2022/04/02 08:09:08;;;;;;;9.90;5.60;;;;;;;1.48;70.94;100143.94;4181507;28;20489;-68
2022/04/02 08:11:13;;;;;;;8.00;4.80;;;;;;;1.50;70.75;100152.56;4176067;28;20625;-70
2022/04/02 08:13:21;;;;;;;8.32;5.55;;;;;;;1.33;71.51;100157.81;4158258;28;20087;-70
2022/04/02 08:15:28;;;;;;;6.93;5.28;;;;;;;1.55;70.59;100161.34;4171499;28;20067;-71
2022/04/02 08:17:40;;;;;;;7.70;5.60;;;;;;;1.63;69.99;100166.81;4176361;28;20466;-68
2022/04/02 08:19:46;;;;;;;9.43;6.35;;;;;;;1.56;70.00;100168.22;4178520;28;20045;-68
2022/04/02 08:21:49;;;;;;;8.10;5.53;;;;;;;1.50;70.04;100170.50;4178550;28;20041;-69
2022/04/02 08:23:52;;;;;;;9.02;5.65;;;;;;;1.48;70.78;100164.44;4174620;28;20124;-69
2022/04/02 08:26:08;;;;;;;12.00;6.28;;;;;;;1.59;69.69;100172.59;4179933;28;20066;-69
2022/04/02 08:28:19;;;;;;;11.23;6.00;;;;;;;1.52;69.63;100176.56;4178698;28;20049;-69
2022/04/02 08:30:29;;;;;;;15.10;6.45;;;;;;;1.39;70.14;100178.56;4177163;28;20106;-69
2022/04/02 08:32:56;;;;;;;9.95;5.50;;;;;;;1.52;70.09;100177.47;4178992;28;20073;-69
2022/04/02 08:35:06;;;;;;;10.38;5.97;;;;;;;1.54;69.79;100186.06;4169260;28;20179;-69
2022/04/02 08:37:18;;;;;;;7.35;5.18;;;;;;;1.65;68.95;100186.59;4170008;28;20045;-69
2022/04/02 08:39:30;;;;;;;11.20;5.07;;;;;;;1.60;69.29;100192.31;4178850;28;20305;-68
2022/04/02 08:42:06;;;;;;;9.93;5.35;;;;;;;1.63;68.81;100195.00;4173557;28;20536;-69
2022/04/02 08:44:55;;;;;;;13.68;6.18;;;;;;;1.56;69.50;100193.84;4124220;28;20049;-70
2022/04/02 08:47:12;;;;;;;9.00;5.10;;;;;;;1.62;69.01;100201.81;4167542;28;20087;-70
2022/04/02 08:49:24;;;;;;;14.40;6.35;;;;;;;1.63;69.18;100205.25;4171111;28;20530;-69
2022/04/02 08:51:41;;;;;;;10.50;5.63;;;;;;;1.56;69.03;100211.78;4174141;28;20063;-68
2022/04/02 08:56:22;;;;;;;13.27;5.53;;;;;;;1.53;69.52;100207.41;4182707;23;20497;-67
2022/04/02 08:58:34;;;;;;;10.55;5.97;;;;;;;1.64;69.40;100218.13;4180796;28;20037;-68
2022/04/02 09:00:41;;;;;;;7.82;5.45;;;;;;;1.57;70.31;100218.66;4177935;28;20410;-68
2022/04/02 09:03:31;;;;;;;10.75;5.93;;;;;;;1.62;70.96;100224.00;4175567;28;20041;-68
2022/04/02 09:05:52;;;;;;;13.13;5.90;;;;;;;1.68;71.28;100231.94;4184359;28;20037;-69
2022/04/02 09:08:30;;;;;;;8.05;5.20;;;;;;;1.81;69.83;100225.72;4163263;28;20061;-68
2022/04/02 09:11:20;;;;;;;8.23;5.15;;;;;;;1.85;69.90;100237.88;4174440;28;20049;-68
2022/04/02 09:13:48;;;;;;;13.18;4.95;;;;;;;1.87;69.19;100241.34;4116826;28;20078;-68
2022/04/02 09:16:00;;;;;;;9.32;5.25;;;;;;;1.78;69.85;100241.81;4107773;28;20047;-67
2022/04/02 09:18:21;;;;;;;9.85;5.32;;;;;;;1.72;70.45;100247.56;4139875;28;20064;-67
2022/04/02 09:20:41;;;;;;;7.93;5.15;;;;;;;1.72;70.27;100246.66;4155496;28;20045;-67
2022/04/02 09:23:00;;;;;;;17.40;6.50;;;;;;;1.73;71.10;100254.41;4159050;28;20068;-67
2022/04/02 09:25:38;;;;;;;11.38;5.97;;;;;;;1.73;70.51;100249.28;4161774;28;20120;-67
2022/04/02 09:28:05;;;;;;;7.78;5.35;;;;;;;1.84;70.38;100260.06;4175377;28;20550;-67
2022/04/02 09:30:19;;;;;;;9.80;5.95;;;;;;;1.77;69.78;100249.44;4177489;28;20041;-68
2022/04/02 09:32:56;;;;;;;8.27;4.85;;;;;;;1.77;70.63;100249.44;4159546;28;20037;-67
2022/04/02 09:35:34;;;;;;;12.07;6.22;;;;;;;1.76;69.95;100252.81;4160236;28;20384;-67
2022/04/02 09:38:06;;;;;;;10.52;5.97;;;;;;;1.77;71.17;100254.56;4155974;28;20046;-57
2022/04/02 09:40:18;;;;;;;15.45;6.30;;;;;;;1.89;70.67;100257.72;4160915;28;20034;-56
2022/04/02 09:42:34;;;;;;;8.23;5.45;;;;;;;1.85;70.60;100255.81;4162377;28;20091;-56
2022/04/02 09:44:53;;;;;;;10.07;6.75;;;;;;;2.01;69.32;100259.94;4161138;28;20080;-58
2022/04/02 09:47:05;;;;;;;7.45;5.20;;;;;;;1.97;69.76;100258.94;4163932;28;20426;-58
2022/04/02 09:49:22;;;;;;;11.25;6.03;;;;;;;1.85;70.66;100268.63;4165545;28;20089;-58
2022/04/02 09:51:31;;;;;;;8.18;5.47;;;;;;;2.07;69.96;100273.94;4155873;28;20128;-67
2022/04/02 09:53:43;;;;;;;11.38;5.63;;;;;;;2.13;67.84;100269.88;4155562;28;20157;-58
2022/04/02 09:55:57;;;;;;;9.52;5.15;;;;;;;2.01;69.26;100272.75;4164781;28;20026;-58
2022/04/02 09:58:35;;;;;;;7.95;5.15;;;;;;;2.15;67.95;100273.41;4163043;28;20495;-58
2022/04/02 10:00:45;;;;;;;7.63;5.22;;;;;;;2.11;68.65;100277.50;4160125;28;20053;-58
2022/04/02 10:03:01;;;;;;;9.05;5.15;;;;;;;2.09;69.04;100268.88;4161360;28;20530;-59
2022/04/02 10:05:06;;;;;;;;;;;;;;;2.13;68.56;100282.69;4163344;28;20486;-60
2022/04/02 10:07:17;;;;;;;9.13;4.90;;;;;;;2.12;68.37;100274.13;4172504;28;20220;-59
2022/04/02 10:09:23;;;;;;;8.43;5.68;;;;;;;2.17;68.17;100284.59;4161029;28;20071;-61
2022/04/02 10:11:30;;;;;;;7.97;5.65;;;;;;;2.12;68.79;100288.63;4156979;28;20528;-62